sensor_id;sensor_type;location;lat;lon;timestamp;temperature;humidity
18930;DHT22;43305;52.186;5.598;2022-09-02T00:01:26;17.30;99.90
18930;DHT22;43305;52.186;5.598;2022-09-02T00:03:56;17.30;99.90
18930;DHT22;43305;52.186;5.598;2022-09-02T00:06:23;17.20;99.90
18930;DHT22;43305;52.186;5.598;2022-09-02T00:08:51;17.20;99.90
18930;DHT22;43305;52.186;5.598;2022-09-02T00:11:20;17.20;99.90
18930;DHT22;43305;52.186;5.598;2022-09-02T00:13:48;17.20;99.90
18930;DHT22;43305;52.186;5.598;2022-09-02T00:16:15;17.10;99.90
18930;DHT22;43305;52.186;5.598;2022-09-02T00:18:44;17.10;99.90
18930;DHT22;43305;52.186;5.598;2022-09-02T00:21:13;17.10;99.90
18930;DHT22;43305;52.186;5.598;2022-09-02T00:23:42;17.00;99.90
18930;DHT22;43305;52.186;5.598;2022-09-02T00:26:10;17.00;99.90
18930;DHT22;43305;52.186;5.598;2022-09-02T00:28:38;17.00;99.90
18930;DHT22;43305;52.186;5.598;2022-09-02T00:31:05;17.00;99.90
18930;DHT22;43305;52.186;5.598;2022-09-02T00:33:32;16.90;99.90
18930;DHT22;43305;52.186;5.598;2022-09-02T00:36:03;16.90;99.90
18930;DHT22;43305;52.186;5.598;2022-09-02T00:38:31;16.80;99.90
18930;DHT22;43305;52.186;5.598;2022-09-02T00:41:00;16.80;99.90
18930;DHT22;43305;52.186;5.598;2022-09-02T00:43:40;16.80;99.90
18930;DHT22;43305;52.186;5.598;2022-09-02T00:46:08;16.70;99.90
18930;DHT22;43305;52.186;5.598;2022-09-02T00:48:37;16.70;99.90
18930;DHT22;43305;52.186;5.598;2022-09-02T00:51:06;16.60;99.90
18930;DHT22;43305;52.186;5.598;2022-09-02T00:53:34;16.70;99.90
18930;DHT22;43305;52.186;5.598;2022-09-02T00:56:05;16.70;99.90
18930;DHT22;43305;52.186;5.598;2022-09-02T00:58:34;16.60;99.90
18930;DHT22;43305;52.186;5.598;2022-09-02T01:01:03;16.60;99.90
18930;DHT22;43305;52.186;5.598;2022-09-02T01:03:31;16.50;99.90
18930;DHT22;43305;52.186;5.598;2022-09-02T01:05:59;16.50;99.90
18930;DHT22;43305;52.186;5.598;2022-09-02T01:08:31;16.50;99.90
18930;DHT22;43305;52.186;5.598;2022-09-02T01:11:01;16.50;99.90
18930;DHT22;43305;52.186;5.598;2022-09-02T01:13:35;16.50;99.90
18930;DHT22;43305;52.186;5.598;2022-09-02T01:16:17;16.50;99.90
18930;DHT22;43305;52.186;5.598;2022-09-02T01:18:49;16.40;99.90
18930;DHT22;43305;52.186;5.598;2022-09-02T01:21:17;16.40;99.90
18930;DHT22;43305;52.186;5.598;2022-09-02T01:23:46;16.40;99.90
18930;DHT22;43305;52.186;5.598;2022-09-02T01:26:13;16.40;99.90
18930;DHT22;43305;52.186;5.598;2022-09-02T01:28:40;16.40;99.90
18930;DHT22;43305;52.186;5.598;2022-09-02T01:31:07;16.30;99.90
18930;DHT22;43305;52.186;5.598;2022-09-02T01:33:34;16.30;99.90
18930;DHT22;43305;52.186;5.598;2022-09-02T01:36:02;16.30;99.90
18930;DHT22;43305;52.186;5.598;2022-09-02T01:38:30;16.30;99.90
18930;DHT22;43305;52.186;5.598;2022-09-02T01:40:58;16.30;99.90
18930;DHT22;43305;52.186;5.598;2022-09-02T01:43:27;16.30;99.90
18930;DHT22;43305;52.186;5.598;2022-09-02T01:45:57;16.30;99.90
18930;DHT22;43305;52.186;5.598;2022-09-02T01:48:25;16.20;99.90
18930;DHT22;43305;52.186;5.598;2022-09-02T01:50:54;16.20;99.90
18930;DHT22;43305;52.186;5.598;2022-09-02T01:53:21;16.20;99.90
18930;DHT22;43305;52.186;5.598;2022-09-02T01:55:49;16.20;99.90
18930;DHT22;43305;52.186;5.598;2022-09-02T01:58:18;16.20;99.90
18930;DHT22;43305;52.186;5.598;2022-09-02T02:00:46;16.20;99.90
18930;DHT22;43305;52.186;5.598;2022-09-02T02:03:13;16.20;99.90
18930;DHT22;43305;52.186;5.598;2022-09-02T02:05:40;16.20;99.90
18930;DHT22;43305;52.186;5.598;2022-09-02T02:08:08;16.10;99.90
18930;DHT22;43305;52.186;5.598;2022-09-02T02:10:35;16.10;99.90
18930;DHT22;43305;52.186;5.598;2022-09-02T02:13:02;16.10;99.90
18930;DHT22;43305;52.186;5.598;2022-09-02T02:15:31;16.10;99.90
18930;DHT22;43305;52.186;5.598;2022-09-02T02:17:58;16.10;99.90
18930;DHT22;43305;52.186;5.598;2022-09-02T02:20:25;16.00;99.90
18930;DHT22;43305;52.186;5.598;2022-09-02T02:22:52;16.00;99.90
18930;DHT22;43305;52.186;5.598;2022-09-02T02:25:19;16.00;99.90
18930;DHT22;43305;52.186;5.598;2022-09-02T02:27:46;16.00;99.90
18930;DHT22;43305;52.186;5.598;2022-09-02T02:30:15;16.00;99.90
18930;DHT22;43305;52.186;5.598;2022-09-02T02:32:44;15.90;99.90
18930;DHT22;43305;52.186;5.598;2022-09-02T02:35:12;16.00;99.90
18930;DHT22;43305;52.186;5.598;2022-09-02T02:37:39;15.90;99.90
18930;DHT22;43305;52.186;5.598;2022-09-02T02:40:07;15.90;99.90
18930;DHT22;43305;52.186;5.598;2022-09-02T02:42:34;15.90;99.90
18930;DHT22;43305;52.186;5.598;2022-09-02T02:45:02;15.80;99.90
18930;DHT22;43305;52.186;5.598;2022-09-02T02:47:36;15.80;99.90
18930;DHT22;43305;52.186;5.598;2022-09-02T02:50:05;15.80;99.90
18930;DHT22;43305;52.186;5.598;2022-09-02T02:52:32;15.80;99.90
18930;DHT22;43305;52.186;5.598;2022-09-02T02:54:58;15.80;99.90
18930;DHT22;43305;52.186;5.598;2022-09-02T02:57:25;15.80;99.90
18930;DHT22;43305;52.186;5.598;2022-09-02T02:59:52;15.70;99.90
18930;DHT22;43305;52.186;5.598;2022-09-02T03:02:19;15.70;99.90
18930;DHT22;43305;52.186;5.598;2022-09-02T03:04:46;15.60;99.90
18930;DHT22;43305;52.186;5.598;2022-09-02T03:07:17;15.60;99.90
18930;DHT22;43305;52.186;5.598;2022-09-02T03:09:43;15.60;99.90
18930;DHT22;43305;52.186;5.598;2022-09-02T03:12:10;15.60;99.90
18930;DHT22;43305;52.186;5.598;2022-09-02T03:14:37;15.60;99.90
18930;DHT22;43305;52.186;5.598;2022-09-02T03:17:04;15.50;99.90
18930;DHT22;43305;52.186;5.598;2022-09-02T03:19:31;15.50;99.90
18930;DHT22;43305;52.186;5.598;2022-09-02T03:21:57;15.50;99.90
18930;DHT22;43305;52.186;5.598;2022-09-02T03:24:26;15.50;99.90
18930;DHT22;43305;52.186;5.598;2022-09-02T03:26:53;15.40;99.90
18930;DHT22;43305;52.186;5.598;2022-09-02T03:29:20;15.40;99.90
18930;DHT22;43305;52.186;5.598;2022-09-02T03:31:47;15.40;99.90
18930;DHT22;43305;52.186;5.598;2022-09-02T03:34:13;15.30;99.90
18930;DHT22;43305;52.186;5.598;2022-09-02T03:36:41;15.30;99.90
18930;DHT22;43305;52.186;5.598;2022-09-02T03:39:10;15.30;99.90
18930;DHT22;43305;52.186;5.598;2022-09-02T03:41:39;15.30;99.90
18930;DHT22;43305;52.186;5.598;2022-09-02T03:44:06;15.30;99.90
18930;DHT22;43305;52.186;5.598;2022-09-02T03:46:33;15.30;99.90
18930;DHT22;43305;52.186;5.598;2022-09-02T03:49:00;15.30;99.90
18930;DHT22;43305;52.186;5.598;2022-09-02T03:51:27;15.30;99.90
18930;DHT22;43305;52.186;5.598;2022-09-02T03:53:55;15.30;99.90
18930;DHT22;43305;52.186;5.598;2022-09-02T03:56:23;15.30;99.90
18930;DHT22;43305;52.186;5.598;2022-09-02T03:58:52;15.30;99.90
18930;DHT22;43305;52.186;5.598;2022-09-02T04:01:22;15.30;99.90
18930;DHT22;43305;52.186;5.598;2022-09-02T04:03:49;15.30;99.90
18930;DHT22;43305;52.186;5.598;2022-09-02T04:06:18;15.30;99.90
18930;DHT22;43305;52.186;5.598;2022-09-02T04:08:45;15.30;99.90
18930;DHT22;43305;52.186;5.598;2022-09-02T04:11:15;15.20;99.90
18930;DHT22;43305;52.186;5.598;2022-09-02T04:13:43;15.20;99.90
18930;DHT22;43305;52.186;5.598;2022-09-02T04:16:14;15.20;99.90
18930;DHT22;43305;52.186;5.598;2022-09-02T04:18:41;15.20;99.90
18930;DHT22;43305;52.186;5.598;2022-09-02T04:21:08;15.20;99.90
18930;DHT22;43305;52.186;5.598;2022-09-02T04:23:35;15.20;99.90
18930;DHT22;43305;52.186;5.598;2022-09-02T04:26:04;15.20;99.90
18930;DHT22;43305;52.186;5.598;2022-09-02T04:28:31;15.20;99.90
18930;DHT22;43305;52.186;5.598;2022-09-02T04:30:58;15.20;99.90
18930;DHT22;43305;52.186;5.598;2022-09-02T04:33:27;15.20;99.90
18930;DHT22;43305;52.186;5.598;2022-09-02T04:35:54;15.20;99.90
18930;DHT22;43305;52.186;5.598;2022-09-02T04:38:21;15.20;99.90
18930;DHT22;43305;52.186;5.598;2022-09-02T04:40:48;15.20;99.90
18930;DHT22;43305;52.186;5.598;2022-09-02T04:43:14;15.20;99.90
18930;DHT22;43305;52.186;5.598;2022-09-02T04:45:43;15.20;99.90
18930;DHT22;43305;52.186;5.598;2022-09-02T04:48:11;15.20;99.90
18930;DHT22;43305;52.186;5.598;2022-09-02T04:50:41;15.30;99.90
18930;DHT22;43305;52.186;5.598;2022-09-02T04:53:08;15.20;99.90
18930;DHT22;43305;52.186;5.598;2022-09-02T04:55:38;15.30;99.90
18930;DHT22;43305;52.186;5.598;2022-09-02T04:58:05;15.30;99.90
18930;DHT22;43305;52.186;5.598;2022-09-02T05:00:32;15.30;99.90
18930;DHT22;43305;52.186;5.598;2022-09-02T05:02:59;15.30;99.90
18930;DHT22;43305;52.186;5.598;2022-09-02T05:05:25;15.30;99.90
18930;DHT22;43305;52.186;5.598;2022-09-02T05:07:54;15.30;99.90
18930;DHT22;43305;52.186;5.598;2022-09-02T05:10:21;15.30;99.90
18930;DHT22;43305;52.186;5.598;2022-09-02T05:12:48;15.30;99.90
18930;DHT22;43305;52.186;5.598;2022-09-02T05:18:02;15.20;99.90
18930;DHT22;43305;52.186;5.598;2022-09-02T05:20:29;15.30;99.90
18930;DHT22;43305;52.186;5.598;2022-09-02T05:23:00;15.30;99.90
18930;DHT22;43305;52.186;5.598;2022-09-02T05:25:29;15.30;99.90
18930;DHT22;43305;52.186;5.598;2022-09-02T05:27:58;15.30;99.90
18930;DHT22;43305;52.186;5.598;2022-09-02T05:30:25;15.30;99.90
18930;DHT22;43305;52.186;5.598;2022-09-02T05:32:52;15.30;99.90
18930;DHT22;43305;52.186;5.598;2022-09-02T05:35:18;15.30;99.90
18930;DHT22;43305;52.186;5.598;2022-09-02T05:37:45;15.30;99.90
18930;DHT22;43305;52.186;5.598;2022-09-02T05:40:14;15.40;99.90
18930;DHT22;43305;52.186;5.598;2022-09-02T05:42:41;15.30;99.90
18930;DHT22;43305;52.186;5.598;2022-09-02T05:45:08;15.40;99.90
18930;DHT22;43305;52.186;5.598;2022-09-02T05:47:36;15.40;99.90
18930;DHT22;43305;52.186;5.598;2022-09-02T05:50:04;15.40;99.90
18930;DHT22;43305;52.186;5.598;2022-09-02T05:52:32;15.40;99.90
18930;DHT22;43305;52.186;5.598;2022-09-02T05:55:00;15.50;99.90
18930;DHT22;43305;52.186;5.598;2022-09-02T05:57:30;15.50;99.90
18930;DHT22;43305;52.186;5.598;2022-09-02T05:59:57;15.60;99.90
18930;DHT22;43305;52.186;5.598;2022-09-02T06:02:24;15.60;99.90
18930;DHT22;43305;52.186;5.598;2022-09-02T06:04:53;15.70;99.90
18930;DHT22;43305;52.186;5.598;2022-09-02T06:07:22;15.70;99.90
18930;DHT22;43305;52.186;5.598;2022-09-02T06:09:49;15.70;99.90
18930;DHT22;43305;52.186;5.598;2022-09-02T06:12:18;15.80;99.90
18930;DHT22;43305;52.186;5.598;2022-09-02T06:14:47;15.90;99.90
18930;DHT22;43305;52.186;5.598;2022-09-02T06:17:14;15.90;99.90
18930;DHT22;43305;52.186;5.598;2022-09-02T06:19:42;16.00;99.90
18930;DHT22;43305;52.186;5.598;2022-09-02T06:22:10;16.10;99.90
18930;DHT22;43305;52.186;5.598;2022-09-02T06:24:37;16.20;99.90
18930;DHT22;43305;52.186;5.598;2022-09-02T06:27:22;16.20;99.90
18930;DHT22;43305;52.186;5.598;2022-09-02T06:29:54;16.30;99.90
18930;DHT22;43305;52.186;5.598;2022-09-02T06:32:20;16.30;99.90
18930;DHT22;43305;52.186;5.598;2022-09-02T06:34:48;16.40;99.90
18930;DHT22;43305;52.186;5.598;2022-09-02T06:37:14;16.40;99.90
18930;DHT22;43305;52.186;5.598;2022-09-02T06:39:41;16.50;99.90
18930;DHT22;43305;52.186;5.598;2022-09-02T06:42:10;16.50;99.90
18930;DHT22;43305;52.186;5.598;2022-09-02T06:44:37;16.60;99.90
18930;DHT22;43305;52.186;5.598;2022-09-02T06:47:05;16.70;99.90
18930;DHT22;43305;52.186;5.598;2022-09-02T06:49:32;16.70;99.90
18930;DHT22;43305;52.186;5.598;2022-09-02T06:51:58;16.70;99.90
18930;DHT22;43305;52.186;5.598;2022-09-02T06:54:26;16.70;99.90
18930;DHT22;43305;52.186;5.598;2022-09-02T06:56:53;16.80;99.90
18930;DHT22;43305;52.186;5.598;2022-09-02T06:59:21;16.80;99.90
18930;DHT22;43305;52.186;5.598;2022-09-02T07:01:50;16.80;99.90
18930;DHT22;43305;52.186;5.598;2022-09-02T07:04:18;16.80;99.90
18930;DHT22;43305;52.186;5.598;2022-09-02T07:06:59;16.80;99.90
18930;DHT22;43305;52.186;5.598;2022-09-02T07:09:30;16.80;99.90
18930;DHT22;43305;52.186;5.598;2022-09-02T07:11:58;16.80;99.90
18930;DHT22;43305;52.186;5.598;2022-09-02T07:14:25;16.80;99.90
18930;DHT22;43305;52.186;5.598;2022-09-02T07:16:55;16.80;99.90
18930;DHT22;43305;52.186;5.598;2022-09-02T07:19:27;16.90;99.90
18930;DHT22;43305;52.186;5.598;2022-09-02T07:21:54;16.90;99.90
18930;DHT22;43305;52.186;5.598;2022-09-02T07:24:21;17.10;99.90
18930;DHT22;43305;52.186;5.598;2022-09-02T07:26:49;17.20;99.90
18930;DHT22;43305;52.186;5.598;2022-09-02T07:29:16;17.20;99.90
18930;DHT22;43305;52.186;5.598;2022-09-02T07:31:45;17.20;99.90
18930;DHT22;43305;52.186;5.598;2022-09-02T07:34:14;17.40;99.90
18930;DHT22;43305;52.186;5.598;2022-09-02T07:36:42;17.70;99.90
18930;DHT22;43305;52.186;5.598;2022-09-02T07:39:11;17.90;99.90
18930;DHT22;43305;52.186;5.598;2022-09-02T07:41:41;18.10;99.90
18930;DHT22;43305;52.186;5.598;2022-09-02T07:44:11;18.30;99.90
18930;DHT22;43305;52.186;5.598;2022-09-02T07:46:39;18.60;99.90
18930;DHT22;43305;52.186;5.598;2022-09-02T07:49:08;18.90;99.90
18930;DHT22;43305;52.186;5.598;2022-09-02T07:51:39;18.90;99.90
18930;DHT22;43305;52.186;5.598;2022-09-02T07:54:14;18.90;99.90
18930;DHT22;43305;52.186;5.598;2022-09-02T07:56:42;18.90;99.90
18930;DHT22;43305;52.186;5.598;2022-09-02T07:59:09;19.10;99.90
18930;DHT22;43305;52.186;5.598;2022-09-02T08:01:38;19.40;99.90
18930;DHT22;43305;52.186;5.598;2022-09-02T08:04:08;19.60;99.90
18930;DHT22;43305;52.186;5.598;2022-09-02T08:06:35;19.90;99.90
18930;DHT22;43305;52.186;5.598;2022-09-02T08:09:03;20.10;99.90
18930;DHT22;43305;52.186;5.598;2022-09-02T08:11:33;20.20;99.90
18930;DHT22;43305;52.186;5.598;2022-09-02T08:14:05;20.30;99.90
18930;DHT22;43305;52.186;5.598;2022-09-02T08:16:32;20.40;99.90
18930;DHT22;43305;52.186;5.598;2022-09-02T08:19:00;20.40;99.90
18930;DHT22;43305;52.186;5.598;2022-09-02T08:21:27;20.40;99.90
18930;DHT22;43305;52.186;5.598;2022-09-02T08:23:54;20.30;99.90
18930;DHT22;43305;52.186;5.598;2022-09-02T08:26:21;20.40;99.90
18930;DHT22;43305;52.186;5.598;2022-09-02T08:28:50;20.50;99.90
18930;DHT22;43305;52.186;5.598;2022-09-02T08:31:17;20.50;99.90
18930;DHT22;43305;52.186;5.598;2022-09-02T08:33:44;20.50;99.90
18930;DHT22;43305;52.186;5.598;2022-09-02T08:36:10;20.50;99.90
18930;DHT22;43305;52.186;5.598;2022-09-02T08:38:40;20.50;99.90
18930;DHT22;43305;52.186;5.598;2022-09-02T08:41:20;20.50;99.90
18930;DHT22;43305;52.186;5.598;2022-09-02T08:43:50;20.60;99.90
18930;DHT22;43305;52.186;5.598;2022-09-02T08:46:20;20.60;99.90
18930;DHT22;43305;52.186;5.598;2022-09-02T08:48:51;20.70;99.90
18930;DHT22;43305;52.186;5.598;2022-09-02T08:51:27;20.80;99.90
18930;DHT22;43305;52.186;5.598;2022-09-02T08:54:02;20.90;99.90
18930;DHT22;43305;52.186;5.598;2022-09-02T08:56:30;21.00;99.90
18930;DHT22;43305;52.186;5.598;2022-09-02T08:58:58;21.10;99.90
18930;DHT22;43305;52.186;5.598;2022-09-02T09:01:34;21.10;99.90
18930;DHT22;43305;52.186;5.598;2022-09-02T09:04:17;21.20;99.90
18930;DHT22;43305;52.186;5.598;2022-09-02T09:06:58;21.30;99.90
18930;DHT22;43305;52.186;5.598;2022-09-02T09:09:32;21.40;99.90
18930;DHT22;43305;52.186;5.598;2022-09-02T09:12:06;21.40;99.90
18930;DHT22;43305;52.186;5.598;2022-09-02T09:14:41;21.50;99.90
18930;DHT22;43305;52.186;5.598;2022-09-02T09:17:22;21.60;99.90
18930;DHT22;43305;52.186;5.598;2022-09-02T09:19:52;21.80;99.90
18930;DHT22;43305;52.186;5.598;2022-09-02T09:22:20;22.00;99.90
18930;DHT22;43305;52.186;5.598;2022-09-02T09:24:50;22.10;99.90
18930;DHT22;43305;52.186;5.598;2022-09-02T09:27:18;22.20;99.90
18930;DHT22;43305;52.186;5.598;2022-09-02T09:29:48;22.10;99.90
18930;DHT22;43305;52.186;5.598;2022-09-02T09:32:20;22.10;99.90
18930;DHT22;43305;52.186;5.598;2022-09-02T09:34:58;22.10;99.90
18930;DHT22;43305;52.186;5.598;2022-09-02T09:37:30;22.10;99.90
18930;DHT22;43305;52.186;5.598;2022-09-02T09:39:57;22.20;99.90
18930;DHT22;43305;52.186;5.598;2022-09-02T09:42:34;22.30;99.90
18930;DHT22;43305;52.186;5.598;2022-09-02T09:45:16;22.50;99.90
18930;DHT22;43305;52.186;5.598;2022-09-02T09:47:44;22.70;99.90
18930;DHT22;43305;52.186;5.598;2022-09-02T09:50:15;22.90;99.90
18930;DHT22;43305;52.186;5.598;2022-09-02T09:52:43;23.00;99.90
18930;DHT22;43305;52.186;5.598;2022-09-02T09:55:15;23.10;99.90
18930;DHT22;43305;52.186;5.598;2022-09-02T09:57:44;23.10;99.90
18930;DHT22;43305;52.186;5.598;2022-09-02T10:00:19;23.10;99.90
18930;DHT22;43305;52.186;5.598;2022-09-02T10:02:49;23.20;99.90
18930;DHT22;43305;52.186;5.598;2022-09-02T10:05:26;23.30;99.90
18930;DHT22;43305;52.186;5.598;2022-09-02T10:07:58;23.30;99.90
18930;DHT22;43305;52.186;5.598;2022-09-02T10:10:28;23.30;99.90
18930;DHT22;43305;52.186;5.598;2022-09-02T10:12:59;23.30;99.90
18930;DHT22;43305;52.186;5.598;2022-09-02T10:15:38;23.40;99.90
18930;DHT22;43305;52.186;5.598;2022-09-02T10:18:18;23.50;99.90
18930;DHT22;43305;52.186;5.598;2022-09-02T10:20:54;23.60;99.90
18930;DHT22;43305;52.186;5.598;2022-09-02T10:23:30;23.60;99.90
18930;DHT22;43305;52.186;5.598;2022-09-02T10:26:11;23.60;99.90
18930;DHT22;43305;52.186;5.598;2022-09-02T10:28:58;23.70;99.90
18930;DHT22;43305;52.186;5.598;2022-09-02T10:31:31;23.70;99.90
18930;DHT22;43305;52.186;5.598;2022-09-02T10:37:07;23.60;99.90
18930;DHT22;43305;52.186;5.598;2022-09-02T10:39:48;23.70;99.90
18930;DHT22;43305;52.186;5.598;2022-09-02T10:42:24;23.70;99.90
18930;DHT22;43305;52.186;5.598;2022-09-02T10:45:02;23.80;99.90
18930;DHT22;43305;52.186;5.598;2022-09-02T10:47:37;23.90;99.90
18930;DHT22;43305;52.186;5.598;2022-09-02T10:50:14;24.00;99.90
18930;DHT22;43305;52.186;5.598;2022-09-02T10:53:01;24.10;99.90
18930;DHT22;43305;52.186;5.598;2022-09-02T10:55:38;24.20;99.90
18930;DHT22;43305;52.186;5.598;2022-09-02T10:58:16;24.30;99.90
18930;DHT22;43305;52.186;5.598;2022-09-02T11:00:49;24.50;99.90
18930;DHT22;43305;52.186;5.598;2022-09-02T11:03:26;24.50;99.90
18930;DHT22;43305;52.186;5.598;2022-09-02T11:06:03;24.70;99.90
18930;DHT22;43305;52.186;5.598;2022-09-02T11:08:37;24.80;99.90
18930;DHT22;43305;52.186;5.598;2022-09-02T11:11:08;24.80;99.90
18930;DHT22;43305;52.186;5.598;2022-09-02T11:13:41;24.80;99.90
18930;DHT22;43305;52.186;5.598;2022-09-02T11:16:23;24.80;99.90
18930;DHT22;43305;52.186;5.598;2022-09-02T11:18:57;25.00;99.90
18930;DHT22;43305;52.186;5.598;2022-09-02T11:21:33;25.00;99.90
18930;DHT22;43305;52.186;5.598;2022-09-02T11:24:05;25.10;99.90
18930;DHT22;43305;52.186;5.598;2022-09-02T11:26:37;25.10;99.90
18930;DHT22;43305;52.186;5.598;2022-09-02T11:29:10;25.00;99.90
18930;DHT22;43305;52.186;5.598;2022-09-02T11:31:41;25.10;99.90
18930;DHT22;43305;52.186;5.598;2022-09-02T11:34:18;25.20;99.90
18930;DHT22;43305;52.186;5.598;2022-09-02T11:36:46;25.20;99.90
18930;DHT22;43305;52.186;5.598;2022-09-02T11:39:18;25.30;99.90
18930;DHT22;43305;52.186;5.598;2022-09-02T11:41:57;25.30;99.90
18930;DHT22;43305;52.186;5.598;2022-09-02T11:47:39;25.40;99.90
18930;DHT22;43305;52.186;5.598;2022-09-02T11:50:30;25.40;99.90
18930;DHT22;43305;52.186;5.598;2022-09-02T11:53:10;25.30;99.90
18930;DHT22;43305;52.186;5.598;2022-09-02T11:55:45;25.20;99.90
18930;DHT22;43305;52.186;5.598;2022-09-02T11:58:30;25.10;99.90
18930;DHT22;43305;52.186;5.598;2022-09-02T12:01:04;24.90;99.90
18930;DHT22;43305;52.186;5.598;2022-09-02T12:03:33;24.70;99.90
18930;DHT22;43305;52.186;5.598;2022-09-02T12:06:11;24.60;99.90
18930;DHT22;43305;52.186;5.598;2022-09-02T12:08:59;24.60;99.90
18930;DHT22;43305;52.186;5.598;2022-09-02T12:11:37;24.50;99.90
18930;DHT22;43305;52.186;5.598;2022-09-02T12:14:07;24.50;99.90
18930;DHT22;43305;52.186;5.598;2022-09-02T12:16:43;24.60;99.90
18930;DHT22;43305;52.186;5.598;2022-09-02T12:19:26;24.70;99.90
18930;DHT22;43305;52.186;5.598;2022-09-02T12:24:54;24.60;99.90
18930;DHT22;43305;52.186;5.598;2022-09-02T12:27:24;24.60;99.90
18930;DHT22;43305;52.186;5.598;2022-09-02T12:29:52;24.50;99.90
18930;DHT22;43305;52.186;5.598;2022-09-02T12:35:32;24.50;99.90
18930;DHT22;43305;52.186;5.598;2022-09-02T12:38:20;24.50;99.90
18930;DHT22;43305;52.186;5.598;2022-09-02T12:40:55;24.50;99.90
18930;DHT22;43305;52.186;5.598;2022-09-02T12:43:26;24.50;99.90
18930;DHT22;43305;52.186;5.598;2022-09-02T12:45:59;24.50;99.90
18930;DHT22;43305;52.186;5.598;2022-09-02T12:48:36;24.40;99.90
18930;DHT22;43305;52.186;5.598;2022-09-02T12:51:05;24.50;99.90
18930;DHT22;43305;52.186;5.598;2022-09-02T12:53:36;24.70;99.90
18930;DHT22;43305;52.186;5.598;2022-09-02T12:56:15;24.70;99.90
18930;DHT22;43305;52.186;5.598;2022-09-02T12:58:45;24.70;99.90
18930;DHT22;43305;52.186;5.598;2022-09-02T13:01:16;24.60;99.90
18930;DHT22;43305;52.186;5.598;2022-09-02T13:03:56;24.50;99.90
18930;DHT22;43305;52.186;5.598;2022-09-02T13:06:33;24.60;99.90
18930;DHT22;43305;52.186;5.598;2022-09-02T13:09:14;24.70;99.90
18930;DHT22;43305;52.186;5.598;2022-09-02T13:39:27;26.20;99.90
18930;DHT22;43305;52.186;5.598;2022-09-02T13:41:54;26.80;99.90
18930;DHT22;43305;52.186;5.598;2022-09-02T13:44:24;26.90;99.90
18930;DHT22;43305;52.186;5.598;2022-09-02T13:46:53;27.10;99.90
18930;DHT22;43305;52.186;5.598;2022-09-02T13:49:22;26.80;99.90
18930;DHT22;43305;52.186;5.598;2022-09-02T13:51:52;26.30;99.90
18930;DHT22;43305;52.186;5.598;2022-09-02T13:54:29;26.00;99.90
18930;DHT22;43305;52.186;5.598;2022-09-02T13:56:58;25.70;99.90
18930;DHT22;43305;52.186;5.598;2022-09-02T13:59:35;25.60;99.90
18930;DHT22;43305;52.186;5.598;2022-09-02T14:02:18;25.60;99.90
18930;DHT22;43305;52.186;5.598;2022-09-02T14:04:49;25.50;99.90
18930;DHT22;43305;52.186;5.598;2022-09-02T14:07:19;25.50;99.90
18930;DHT22;43305;52.186;5.598;2022-09-02T14:09:48;25.60;99.90
18930;DHT22;43305;52.186;5.598;2022-09-02T14:12:19;25.80;99.90
18930;DHT22;43305;52.186;5.598;2022-09-02T14:14:46;26.10;99.90
18930;DHT22;43305;52.186;5.598;2022-09-02T14:17:17;26.40;99.90
18930;DHT22;43305;52.186;5.598;2022-09-02T14:19:45;26.40;99.90
18930;DHT22;43305;52.186;5.598;2022-09-02T14:22:28;26.60;99.90
18930;DHT22;43305;52.186;5.598;2022-09-02T14:24:57;26.50;99.90
18930;DHT22;43305;52.186;5.598;2022-09-02T14:27:23;26.30;99.90
18930;DHT22;43305;52.186;5.598;2022-09-02T14:29:54;26.00;99.90
18930;DHT22;43305;52.186;5.598;2022-09-02T14:32:24;25.70;99.90
18930;DHT22;43305;52.186;5.598;2022-09-02T14:35:08;25.50;99.90
18930;DHT22;43305;52.186;5.598;2022-09-02T14:37:48;25.50;99.90
18930;DHT22;43305;52.186;5.598;2022-09-02T14:40:17;25.40;99.90
18930;DHT22;43305;52.186;5.598;2022-09-02T14:42:56;25.40;99.90
18930;DHT22;43305;52.186;5.598;2022-09-02T14:45:26;25.40;99.90
18930;DHT22;43305;52.186;5.598;2022-09-02T14:47:53;25.30;99.90
18930;DHT22;43305;52.186;5.598;2022-09-02T14:50:24;25.30;99.90
18930;DHT22;43305;52.186;5.598;2022-09-02T14:52:57;25.30;99.90
18930;DHT22;43305;52.186;5.598;2022-09-02T14:55:43;25.20;99.90
18930;DHT22;43305;52.186;5.598;2022-09-02T15:00:47;25.00;99.90
18930;DHT22;43305;52.186;5.598;2022-09-02T15:03:19;24.90;99.90
18930;DHT22;43305;52.186;5.598;2022-09-02T15:05:46;24.90;99.90
18930;DHT22;43305;52.186;5.598;2022-09-02T15:08:14;24.80;99.90
18930;DHT22;43305;52.186;5.598;2022-09-02T15:10:43;24.90;99.90
18930;DHT22;43305;52.186;5.598;2022-09-02T15:13:12;24.80;99.90
18930;DHT22;43305;52.186;5.598;2022-09-02T15:15:40;24.80;99.90
18930;DHT22;43305;52.186;5.598;2022-09-02T15:18:06;24.70;99.90
18930;DHT22;43305;52.186;5.598;2022-09-02T15:20:33;24.70;99.90
18930;DHT22;43305;52.186;5.598;2022-09-02T15:23:03;24.70;99.90
18930;DHT22;43305;52.186;5.598;2022-09-02T15:25:29;24.70;99.90
18930;DHT22;43305;52.186;5.598;2022-09-02T15:28:01;24.80;99.90
18930;DHT22;43305;52.186;5.598;2022-09-02T15:30:28;24.90;99.90
18930;DHT22;43305;52.186;5.598;2022-09-02T15:32:55;24.90;99.90
18930;DHT22;43305;52.186;5.598;2022-09-02T15:35:22;24.90;99.90
18930;DHT22;43305;52.186;5.598;2022-09-02T15:37:49;25.10;99.90
18930;DHT22;43305;52.186;5.598;2022-09-02T15:40:16;25.20;99.90
18930;DHT22;43305;52.186;5.598;2022-09-02T15:42:42;25.20;99.90
18930;DHT22;43305;52.186;5.598;2022-09-02T15:45:14;25.10;99.90
18930;DHT22;43305;52.186;5.598;2022-09-02T15:47:41;25.00;99.90
18930;DHT22;43305;52.186;5.598;2022-09-02T15:50:08;25.00;99.90
18930;DHT22;43305;52.186;5.598;2022-09-02T15:52:36;25.00;99.90
18930;DHT22;43305;52.186;5.598;2022-09-02T15:55:04;25.00;99.90
18930;DHT22;43305;52.186;5.598;2022-09-02T15:57:31;25.00;99.90
18930;DHT22;43305;52.186;5.598;2022-09-02T15:59:58;25.10;99.90
18930;DHT22;43305;52.186;5.598;2022-09-02T16:02:26;25.20;99.90
18930;DHT22;43305;52.186;5.598;2022-09-02T16:04:52;25.60;99.90
18930;DHT22;43305;52.186;5.598;2022-09-02T16:07:19;25.90;99.90
18930;DHT22;43305;52.186;5.598;2022-09-02T16:09:46;25.90;99.90
18930;DHT22;43305;52.186;5.598;2022-09-02T16:12:13;25.80;99.90
18930;DHT22;43305;52.186;5.598;2022-09-02T16:14:39;25.70;99.90
18930;DHT22;43305;52.186;5.598;2022-09-02T16:17:07;25.50;99.90
18930;DHT22;43305;52.186;5.598;2022-09-02T16:19:35;25.40;99.90
18930;DHT22;43305;52.186;5.598;2022-09-02T16:22:02;25.40;99.90
18930;DHT22;43305;52.186;5.598;2022-09-02T16:24:29;25.30;99.90
18930;DHT22;43305;52.186;5.598;2022-09-02T16:26:56;25.20;99.90
18930;DHT22;43305;52.186;5.598;2022-09-02T16:29:23;25.10;99.90
18930;DHT22;43305;52.186;5.598;2022-09-02T16:31:51;25.00;99.90
18930;DHT22;43305;52.186;5.598;2022-09-02T16:34:18;24.80;99.90